createdAt,value
2023-03-28T00:01:51.782Z,3.21
2023-03-28T00:04:22.947Z,3.82
2023-03-28T00:06:52.034Z,3.77
2023-03-28T00:09:21.945Z,3.98
2023-03-28T00:11:49.729Z,4.10
2023-03-28T00:14:17.619Z,3.80
2023-03-28T00:16:46.800Z,3.95
2023-03-28T00:19:16.884Z,3.80
2023-03-28T00:21:47.232Z,4.08
2023-03-28T00:24:17.408Z,4.05
2023-03-28T00:26:49.458Z,3.90
2023-03-28T00:29:21.150Z,3.87
2023-03-28T00:31:50.501Z,4.04
2023-03-28T00:34:18.766Z,4.02
2023-03-28T00:36:46.672Z,4.05
2023-03-28T00:39:14.573Z,3.98
2023-03-28T00:41:43.932Z,3.94
2023-03-28T00:44:45.821Z,4.05
2023-03-28T00:47:20.553Z,3.62
2023-03-28T00:49:53.001Z,3.65
2023-03-28T00:52:25.131Z,4.05
2023-03-28T00:54:54.125Z,3.97
2023-03-28T00:57:23.574Z,4.00
2023-03-28T00:59:53.158Z,3.91
2023-03-28T01:02:21.639Z,3.74
2023-03-28T01:04:57.708Z,3.92
2023-03-28T01:07:26.396Z,4.04
2023-03-28T01:09:55.382Z,3.85
2023-03-28T01:12:24.173Z,4.15
2023-03-28T01:14:54.335Z,3.99
2023-03-28T01:17:22.801Z,4.01
2023-03-28T01:20:02.760Z,3.92
2023-03-28T01:23:07.652Z,3.83
2023-03-28T01:26:14.242Z,4.01
2023-03-28T01:29:12.446Z,3.50
2023-03-28T01:32:07.564Z,3.81
2023-03-28T01:35:29.879Z,3.82
2023-03-28T01:38:05.643Z,3.70
2023-03-28T01:40:39.839Z,3.89
2023-03-28T01:43:32.652Z,3.85
2023-03-28T01:46:07.239Z,3.71
2023-03-28T01:48:45.045Z,3.77
2023-03-28T01:51:22.922Z,3.78
2023-03-28T01:53:59.333Z,3.74
2023-03-28T01:56:32.741Z,3.86
2023-03-28T01:59:10.455Z,3.76
2023-03-28T02:02:07.011Z,3.75
2023-03-28T02:04:38.261Z,3.81
2023-03-28T02:07:08.912Z,3.76
2023-03-28T02:09:45.747Z,3.36
2023-03-28T02:12:41.426Z,3.63
2023-03-28T02:15:16.990Z,3.54
2023-03-28T02:18:23.682Z,3.78
2023-03-28T02:21:20.570Z,3.25
2023-03-28T02:24:06.379Z,3.64
2023-03-28T02:26:54.277Z,3.76
2023-03-28T02:29:31.721Z,3.46
2023-03-28T02:32:12.659Z,3.77
2023-03-28T02:34:41.727Z,3.74
2023-03-28T02:37:21.605Z,3.58
2023-03-28T02:40:03.504Z,3.63
2023-03-28T02:43:04.905Z,3.63
2023-03-28T02:45:59.591Z,3.68
2023-03-28T02:48:42.839Z,3.82
2023-03-28T02:51:20.221Z,3.73
2023-03-28T02:53:58.670Z,3.40
2023-03-28T02:56:38.407Z,3.41
2023-03-28T02:59:17.575Z,3.60
2023-03-28T03:01:45.984Z,3.58
2023-03-28T03:04:17.212Z,3.60
2023-03-28T03:06:48.361Z,3.62
2023-03-28T03:09:17.431Z,3.53
2023-03-28T03:11:45.533Z,3.44
2023-03-28T03:14:14.759Z,3.32
2023-03-28T03:16:43.207Z,3.71
2023-03-28T03:19:11.956Z,3.53
2023-03-28T03:21:39.748Z,3.68
2023-03-28T03:24:09.770Z,3.62
2023-03-28T03:26:40.192Z,3.51
2023-03-28T03:29:08.276Z,3.58
2023-03-28T03:31:38.186Z,3.46
2023-03-28T03:34:18.129Z,3.66
2023-03-28T03:36:52.992Z,3.77
2023-03-28T03:39:21.191Z,3.78
2023-03-28T03:41:49.451Z,3.82
2023-03-28T03:44:17.241Z,3.73
2023-03-28T03:46:46.517Z,3.65
2023-03-28T03:49:14.422Z,3.71
2023-03-28T03:51:43.191Z,3.62
2023-03-28T03:54:15.883Z,3.75
2023-03-28T03:56:43.818Z,3.55
2023-03-28T03:59:12.662Z,3.71
2023-03-28T04:01:43.956Z,3.69
2023-03-28T04:04:33.017Z,3.72
2023-03-28T04:07:26.905Z,3.44
2023-03-28T04:09:57.877Z,3.56
2023-03-28T04:12:28.302Z,3.53
2023-03-28T04:14:57.299Z,3.68
2023-03-28T04:17:37.967Z,3.59
2023-03-28T04:20:15.292Z,3.57
2023-03-28T04:23:01.815Z,3.56
2023-03-28T04:25:31.959Z,3.50
2023-03-28T04:28:27.894Z,3.34
2023-03-28T04:31:04.413Z,3.41
2023-03-28T04:33:53.699Z,3.41
2023-03-28T04:36:25.847Z,3.49
2023-03-28T04:39:03.530Z,3.43
2023-03-28T04:42:05.570Z,3.28
2023-03-28T04:44:51.732Z,3.45
2023-03-28T04:47:20.250Z,3.43
2023-03-28T04:49:48.748Z,3.46
2023-03-28T04:52:18.348Z,3.35
2023-03-28T04:54:48.467Z,3.47
2023-03-28T04:57:17.573Z,3.50
2023-03-28T04:59:48.592Z,3.49
2023-03-28T05:02:35.853Z,3.42
2023-03-28T05:05:07.596Z,3.54
2023-03-28T05:07:37.762Z,3.56
2023-03-28T05:10:08.356Z,3.48
2023-03-28T05:12:40.262Z,3.48
2023-03-28T05:15:09.178Z,3.61
2023-03-28T05:17:48.346Z,3.55
2023-03-28T05:20:22.340Z,3.49
2023-03-28T05:22:57.239Z,3.34
2023-03-28T05:25:26.106Z,3.45
2023-03-28T05:27:55.721Z,3.42
2023-03-28T05:30:24.524Z,3.48
2023-03-28T05:32:55.571Z,3.55
2023-03-28T05:35:23.463Z,3.68
2023-03-28T05:37:52.569Z,3.60
2023-03-28T05:40:22.178Z,3.83
2023-03-28T05:42:50.903Z,3.82
2023-03-28T05:45:21.104Z,3.69
2023-03-28T05:48:27.226Z,3.58
2023-03-28T05:50:55.131Z,3.62
2023-03-28T05:53:22.940Z,3.54
2023-03-28T05:55:52.127Z,3.65
2023-03-28T05:58:20.252Z,3.33
2023-03-28T06:00:48.220Z,3.71
2023-03-28T06:03:17.781Z,3.54
2023-03-28T06:05:47.481Z,3.60
2023-03-28T06:08:21.391Z,3.66
2023-03-28T06:10:49.541Z,3.61
2023-03-28T06:13:30.442Z,3.66
2023-03-28T06:15:58.345Z,3.71
2023-03-28T06:18:32.072Z,3.81
2023-03-28T06:21:00.470Z,4.01
2023-03-28T06:23:28.644Z,3.92
2023-03-28T06:25:57.562Z,3.95
2023-03-28T06:28:27.379Z,3.82
2023-03-28T06:31:19.690Z,3.80
2023-03-28T06:33:48.027Z,3.87
2023-03-28T06:36:19.609Z,3.81
2023-03-28T06:38:48.418Z,3.82
2023-03-28T06:41:16.485Z,3.90
2023-03-28T06:43:44.368Z,3.77
2023-03-28T06:46:32.300Z,3.77
2023-03-28T06:49:00.802Z,3.99
2023-03-28T06:51:48.574Z,3.76
2023-03-28T06:54:16.474Z,3.99
2023-03-28T06:56:44.362Z,4.07
2023-03-28T06:59:12.326Z,4.19
2023-03-28T07:01:41.729Z,3.90
2023-03-28T07:04:11.952Z,4.16
2023-03-28T07:06:42.551Z,4.12
2023-03-28T07:09:10.581Z,4.19
2023-03-28T07:11:42.799Z,4.21
2023-03-28T07:14:10.666Z,4.06
2023-03-28T07:16:38.444Z,4.33
2023-03-28T07:19:07.706Z,4.41
2023-03-28T07:21:37.972Z,4.53
2023-03-28T07:24:06.428Z,4.53
2023-03-28T07:26:46.125Z,4.70
2023-03-28T07:29:13.984Z,4.71
2023-03-28T07:31:42.627Z,4.67
2023-03-28T07:34:11.912Z,4.63
2023-03-28T07:36:39.869Z,4.81
2023-03-28T07:39:15.186Z,4.85
2023-03-28T07:41:43.223Z,5.15
2023-03-28T07:44:11.033Z,4.95
2023-03-28T07:46:39.831Z,5.04
2023-03-28T07:49:08.484Z,5.19
2023-03-28T07:51:38.239Z,4.85
2023-03-28T07:54:06.208Z,4.91
2023-03-28T07:56:34.372Z,5.10
2023-03-28T07:59:22.507Z,5.20
2023-03-28T08:01:53.606Z,5.11
2023-03-28T08:04:21.717Z,5.32
2023-03-28T08:07:07.965Z,5.14
2023-03-28T08:09:37.791Z,5.20
2023-03-28T08:12:16.382Z,5.10
2023-03-28T08:14:44.311Z,5.20
2023-03-28T08:17:12.416Z,5.13
2023-03-28T08:19:40.253Z,5.34
2023-03-28T08:22:16.656Z,5.63
2023-03-28T08:24:58.808Z,5.65
2023-03-28T08:27:26.702Z,5.88
2023-03-28T08:29:59.283Z,6.11
2023-03-28T08:32:28.237Z,6.32
2023-03-28T08:35:02.782Z,6.31
2023-03-28T08:37:33.702Z,6.24
2023-03-28T08:40:07.017Z,6.10
2023-03-28T08:43:06.536Z,6.18
2023-03-28T08:45:52.369Z,6.04
2023-03-28T08:48:25.592Z,6.20
2023-03-28T08:51:01.125Z,6.52
2023-03-28T08:53:39.084Z,6.58
2023-03-28T08:56:09.284Z,6.83
2023-03-28T08:58:47.581Z,7.17
2023-03-28T09:01:16.868Z,7.17
2023-03-28T09:03:45.007Z,7.44
2023-03-28T09:06:28.748Z,7.38
2023-03-28T09:09:30.150Z,7.18
2023-03-28T09:12:35.403Z,7.23
2023-03-28T09:15:43.478Z,7.53
2023-03-28T09:18:30.852Z,7.46
2023-03-28T09:21:06.537Z,7.74
2023-03-28T09:23:59.550Z,7.79
2023-03-28T09:26:53.261Z,7.94
2023-03-28T09:29:26.105Z,7.83
2023-03-28T09:31:59.200Z,7.70
2023-03-28T09:34:30.690Z,7.83
2023-03-28T09:37:15.361Z,7.64
2023-03-28T09:39:53.800Z,7.50
2023-03-28T09:42:35.812Z,7.82
2023-03-28T09:45:40.735Z,7.79
2023-03-28T09:48:19.133Z,7.85
2023-03-28T09:50:48.803Z,7.97
2023-03-28T09:53:23.199Z,8.05
2023-03-28T09:56:03.321Z,8.29
2023-03-28T09:58:51.246Z,8.55
2023-03-28T10:01:41.609Z,8.31
2023-03-28T10:04:38.152Z,7.94
2023-03-28T10:07:33.156Z,7.99
2023-03-28T10:10:22.134Z,8.04
2023-03-28T10:12:59.126Z,8.43
2023-03-28T10:15:35.649Z,8.93
2023-03-28T10:18:26.192Z,9.19
2023-03-28T10:21:16.289Z,9.15
2023-03-28T10:23:56.287Z,8.57
2023-03-28T10:26:26.649Z,8.71
2023-03-28T10:29:01.097Z,8.43
2023-03-28T10:31:34.215Z,8.35
2023-03-28T10:34:33.663Z,8.12
2023-03-28T10:37:27.362Z,8.44
2023-03-28T10:40:25.492Z,8.35
2023-03-28T10:43:14.235Z,8.26
2023-03-28T10:46:16.973Z,8.46
2023-03-28T10:49:06.629Z,8.85
2023-03-28T10:51:39.450Z,8.67
2023-03-28T10:54:20.786Z,8.59
2023-03-28T10:56:53.495Z,8.40
2023-03-28T10:59:50.689Z,8.28
2023-03-28T11:02:54.481Z,8.52
2023-03-28T11:05:41.203Z,8.91
2023-03-28T11:08:31.078Z,9.06
2023-03-28T11:11:12.777Z,8.99
2023-03-28T11:13:57.778Z,9.07
2023-03-28T11:16:40.744Z,8.79
2023-03-28T11:20:00.517Z,8.67
2023-03-28T11:22:47.607Z,8.69
2023-03-28T11:25:29.666Z,8.53
2023-03-28T11:28:08.049Z,8.66
2023-03-28T11:30:43.281Z,8.97
2023-03-28T11:33:28.870Z,8.99
2023-03-28T11:36:08.949Z,9.07
2023-03-28T11:38:41.752Z,9.04
2023-03-28T11:41:13.660Z,8.75
2023-03-28T11:44:04.131Z,8.73
2023-03-28T11:46:38.120Z,8.64
2023-03-28T11:49:17.736Z,8.96
2023-03-28T11:51:52.084Z,9.23
2023-03-28T11:54:25.742Z,9.59
2023-03-28T11:56:57.519Z,9.79
2023-03-28T11:59:41.743Z,9.74
2023-03-28T12:02:24.195Z,9.62
2023-03-28T12:04:58.910Z,9.73
2023-03-28T12:07:32.690Z,9.76
2023-03-28T12:10:21.637Z,9.85
2023-03-28T12:12:58.317Z,9.68
2023-03-28T12:15:34.981Z,9.51
2023-03-28T12:18:17.933Z,9.73
2023-03-28T12:20:52.248Z,9.73
2023-03-28T12:23:38.957Z,9.49
2023-03-28T12:26:37.069Z,9.68
2023-03-28T12:29:11.376Z,9.47
2023-03-28T12:31:46.436Z,9.02
2023-03-28T12:34:30.546Z,8.91
2023-03-28T12:37:25.067Z,9.19
2023-03-28T12:40:00.225Z,9.23
2023-03-28T12:42:32.846Z,9.42
2023-03-28T12:45:03.622Z,9.63
2023-03-28T12:47:36.506Z,9.39
2023-03-28T12:50:08.837Z,8.97
2023-03-28T12:52:41.944Z,9.26
2023-03-28T12:55:43.457Z,9.50
2023-03-28T12:58:22.829Z,9.63
2023-03-28T13:01:14.820Z,9.57
2023-03-28T13:04:12.416Z,9.81
2023-03-28T13:07:04.397Z,9.96
2023-03-28T13:09:52.493Z,9.80
2023-03-28T13:12:29.178Z,9.66
2023-03-28T13:15:03.893Z,9.67
2023-03-28T13:17:35.029Z,9.99
2023-03-28T13:20:09.666Z,9.78
2023-03-28T13:22:44.237Z,10.29
2023-03-28T13:25:25.927Z,9.64
2023-03-28T13:27:56.990Z,9.85
2023-03-28T13:30:28.742Z,10.10
2023-03-28T13:32:58.234Z,9.96
2023-03-28T13:35:47.583Z,9.77
2023-03-28T13:38:32.938Z,9.79
2023-03-28T13:41:02.468Z,9.95
2023-03-28T13:43:43.288Z,9.94
2023-03-28T13:46:16.193Z,9.76
2023-03-28T13:48:50.856Z,9.73
2023-03-28T13:51:23.520Z,9.57
2023-03-28T13:53:51.571Z,9.81
2023-03-28T13:56:24.533Z,9.79
2023-03-28T13:58:55.469Z,9.44
2023-03-28T14:01:27.224Z,9.68
2023-03-28T14:03:56.811Z,9.67
2023-03-28T14:06:26.415Z,9.74
2023-03-28T14:08:56.127Z,9.46
2023-03-28T14:11:30.601Z,9.67
2023-03-28T14:14:09.338Z,9.65
2023-03-28T14:16:39.958Z,9.85
2023-03-28T14:19:10.211Z,9.93
2023-03-28T14:21:37.978Z,10.15
2023-03-28T14:24:08.017Z,9.91
2023-03-28T14:26:38.023Z,9.00
2023-03-28T14:29:07.067Z,9.77
2023-03-28T14:31:38.340Z,9.80
2023-03-28T14:34:17.924Z,8.92
2023-03-28T14:37:01.180Z,9.75
2023-03-28T14:39:31.370Z,9.98
2023-03-28T14:42:03.880Z,9.88
2023-03-28T14:44:33.013Z,9.99
2023-03-28T14:47:01.284Z,9.67
2023-03-28T14:49:32.674Z,9.83
2023-03-28T14:52:03.521Z,9.89
2023-03-28T14:54:34.876Z,9.65
2023-03-28T14:57:04.984Z,9.41
2023-03-28T14:59:37.068Z,9.64
2023-03-28T15:02:06.943Z,9.46
2023-03-28T15:04:36.988Z,9.74
2023-03-28T15:07:04.961Z,9.65
2023-03-28T15:09:34.656Z,9.52
2023-03-28T15:12:07.937Z,9.37
2023-03-28T15:14:41.127Z,9.43
2023-03-28T15:17:17.042Z,9.59
2023-03-28T15:19:50.685Z,9.67
2023-03-28T15:22:27.802Z,9.62
2023-03-28T15:24:57.917Z,9.43
2023-03-28T15:27:29.904Z,9.52
2023-03-28T15:29:59.791Z,9.58
2023-03-28T15:32:29.042Z,9.87
2023-03-28T15:35:02.168Z,9.74
2023-03-28T15:37:40.991Z,9.50
2023-03-28T15:40:31.362Z,9.46
2023-03-28T15:43:00.439Z,9.64
2023-03-28T15:45:43.459Z,9.91
2023-03-28T15:48:17.468Z,10.04
2023-03-28T15:50:51.102Z,9.99
2023-03-28T15:53:20.118Z,9.48
2023-03-28T15:55:50.548Z,9.45
2023-03-28T15:58:21.647Z,9.64
2023-03-28T16:00:52.835Z,9.59
2023-03-28T16:03:32.814Z,9.57
2023-03-28T16:06:31.841Z,9.62
2023-03-28T16:09:19.250Z,9.50
2023-03-28T16:11:48.556Z,9.28
2023-03-28T16:14:37.330Z,9.27
2023-03-28T16:17:24.640Z,9.18
2023-03-28T16:20:03.877Z,9.32
2023-03-28T16:22:33.087Z,9.54
2023-03-28T16:25:01.343Z,9.28
2023-03-28T16:27:29.187Z,9.47
2023-03-28T16:29:57.287Z,9.42
2023-03-28T16:32:25.117Z,9.60
2023-03-28T16:34:53.012Z,9.51
2023-03-28T16:37:21.815Z,9.38
2023-03-28T16:39:51.721Z,9.33
2023-03-28T16:42:20.861Z,9.50
2023-03-28T16:44:48.849Z,9.48
2023-03-28T16:47:16.717Z,9.47
2023-03-28T16:49:44.525Z,9.30
2023-03-28T16:52:12.737Z,9.08
2023-03-28T16:54:40.759Z,9.18
2023-03-28T16:57:09.972Z,9.19
2023-03-28T16:59:37.853Z,9.23
2023-03-28T17:02:05.653Z,8.95
2023-03-28T17:04:33.624Z,9.20
2023-03-28T17:07:01.409Z,9.23
2023-03-28T17:09:29.449Z,9.18
2023-03-28T17:11:57.362Z,9.20
2023-03-28T17:14:27.003Z,9.12
2023-03-28T17:16:54.898Z,9.15
2023-03-28T17:19:24.053Z,8.24
2023-03-28T17:21:51.850Z,8.98
2023-03-28T17:24:21.648Z,8.91
2023-03-28T17:26:49.533Z,9.05
2023-03-28T17:29:17.442Z,9.03
2023-03-28T17:31:46.591Z,8.98
2023-03-28T17:34:15.317Z,8.94
2023-03-28T17:36:44.705Z,8.79
2023-03-28T17:39:13.502Z,8.79
2023-03-28T17:41:41.760Z,8.63
2023-03-28T17:44:09.951Z,8.59
2023-03-28T17:46:38.786Z,8.48
2023-03-28T17:49:08.906Z,7.20
2023-03-28T17:51:37.569Z,8.37
2023-03-28T17:54:08.267Z,8.35
2023-03-28T17:56:36.773Z,7.63
2023-03-28T17:59:05.386Z,8.34
2023-03-28T18:01:33.401Z,7.60
2023-03-28T18:04:01.690Z,8.29
2023-03-28T18:06:31.020Z,8.35
2023-03-28T18:08:58.880Z,8.43
2023-03-28T18:11:27.026Z,8.27
2023-03-28T18:13:57.069Z,8.46
2023-03-28T18:16:26.514Z,8.34
2023-03-28T18:18:55.319Z,8.18
2023-03-28T18:21:23.154Z,8.38
2023-03-28T18:23:52.383Z,8.41
2023-03-28T18:26:21.101Z,8.36
2023-03-28T18:28:49.178Z,8.31
2023-03-28T18:31:19.995Z,8.25
2023-03-28T18:33:47.926Z,8.23
2023-03-28T18:36:16.009Z,8.17
2023-03-28T18:38:45.125Z,8.34
2023-03-28T18:41:14.487Z,8.26
2023-03-28T18:43:43.393Z,8.16
2023-03-28T18:46:15.937Z,8.28
2023-03-28T18:48:44.619Z,8.19
2023-03-28T18:51:13.642Z,8.29
2023-03-28T18:53:41.751Z,8.26
2023-03-28T18:56:12.352Z,8.05
2023-03-28T18:58:41.760Z,8.17
2023-03-28T19:01:11.298Z,8.19
2023-03-28T19:03:41.617Z,8.17
2023-03-28T19:06:10.948Z,8.06
2023-03-28T19:08:38.856Z,8.23
2023-03-28T19:11:09.094Z,8.07
2023-03-28T19:13:36.968Z,8.15
2023-03-28T19:16:08.941Z,8.05
2023-03-28T19:18:39.128Z,8.05
2023-03-28T19:21:08.022Z,8.06
2023-03-28T19:23:36.867Z,7.96
2023-03-28T19:26:06.737Z,7.73
2023-03-28T19:28:35.032Z,7.95
2023-03-28T19:31:05.973Z,7.90
2023-03-28T19:33:37.042Z,7.86
2023-03-28T19:36:06.961Z,7.75
2023-03-28T19:38:36.984Z,7.59
2023-03-28T19:41:10.032Z,7.78
2023-03-28T19:43:39.101Z,7.71
2023-03-28T19:46:08.757Z,7.43
2023-03-28T19:48:38.185Z,7.72
2023-03-28T19:51:06.570Z,7.65
2023-03-28T19:53:34.447Z,7.40
2023-03-28T19:56:02.577Z,7.72
2023-03-28T19:58:31.241Z,7.82
2023-03-28T20:00:59.281Z,7.78
2023-03-28T20:03:27.350Z,7.60
2023-03-28T20:05:56.579Z,7.24
2023-03-28T20:08:24.477Z,7.72
2023-03-28T20:10:53.629Z,7.93
2023-03-28T20:13:21.609Z,7.84
2023-03-28T20:15:49.501Z,7.60
2023-03-28T20:18:20.481Z,7.82
2023-03-28T20:20:52.823Z,7.41
2023-03-28T20:23:24.043Z,7.79
2023-03-28T20:25:53.146Z,7.76
2023-03-28T20:28:21.411Z,7.77
2023-03-28T20:30:49.371Z,7.91
2023-03-28T20:33:17.237Z,7.75
2023-03-28T20:35:52.204Z,7.92
2023-03-28T20:38:20.187Z,7.83
2023-03-28T20:40:49.436Z,7.69
2023-03-28T20:43:20.182Z,7.73
2023-03-28T20:45:53.647Z,7.73
2023-03-28T20:48:25.997Z,7.71
2023-03-28T20:50:54.963Z,7.61
2023-03-28T20:53:22.904Z,7.57
2023-03-28T20:56:01.677Z,7.75
2023-03-28T20:58:31.595Z,7.80
2023-03-28T21:01:02.600Z,7.78
2023-03-28T21:03:46.638Z,7.72
2023-03-28T21:06:16.171Z,7.80
2023-03-28T21:08:46.990Z,7.76
2023-03-28T21:11:17.961Z,7.67
2023-03-28T21:13:46.097Z,7.80
2023-03-28T21:16:15.147Z,7.70
2023-03-28T21:18:43.151Z,7.67
2023-03-28T21:21:12.956Z,7.65
2023-03-28T21:23:42.232Z,7.57
2023-03-28T21:26:12.350Z,7.69
2023-03-28T21:28:41.891Z,7.60
2023-03-28T21:31:12.300Z,7.57
2023-03-28T21:33:41.583Z,7.48
2023-03-28T21:36:12.708Z,7.53
2023-03-28T21:38:41.153Z,7.50
2023-03-28T21:41:09.736Z,7.44
2023-03-28T21:43:38.587Z,7.57
2023-03-28T21:46:08.998Z,7.62
2023-03-28T21:48:37.534Z,7.49
2023-03-28T21:51:06.739Z,7.52
2023-03-28T21:53:36.345Z,7.56
2023-03-28T21:56:04.938Z,7.63
2023-03-28T21:58:33.487Z,7.56
2023-03-28T22:01:03.818Z,7.45
2023-03-28T22:03:36.459Z,7.57
2023-03-28T22:06:04.766Z,7.69
2023-03-28T22:08:32.600Z,7.50
2023-03-28T22:11:02.691Z,7.64
2023-03-28T22:13:30.538Z,7.68
2023-03-28T22:15:59.695Z,7.55
2023-03-28T22:18:30.716Z,7.57
2023-03-28T22:21:02.128Z,7.40
2023-03-28T22:23:31.594Z,7.38
2023-03-28T22:25:59.676Z,6.92
2023-03-28T22:28:27.695Z,7.53
2023-03-28T22:30:57.140Z,7.51
2023-03-28T22:33:25.831Z,7.49
2023-03-28T22:35:54.027Z,7.72
2023-03-28T22:38:23.317Z,7.65
2023-03-28T22:40:51.209Z,7.68
2023-03-28T22:43:19.141Z,7.46
2023-03-28T22:45:47.399Z,7.55
2023-03-28T22:48:15.264Z,7.62
2023-03-28T22:50:45.345Z,7.51
2023-03-28T22:53:14.495Z,6.94
2023-03-28T22:55:44.827Z,7.61
2023-03-28T22:58:13.635Z,7.60
2023-03-28T23:00:43.668Z,7.49
2023-03-28T23:03:12.125Z,7.58
2023-03-28T23:05:40.412Z,7.70
2023-03-28T23:08:08.347Z,7.67
2023-03-28T23:10:37.119Z,7.67
2023-03-28T23:13:06.798Z,7.68
2023-03-28T23:15:35.074Z,7.49
2023-03-28T23:18:03.757Z,7.50
2023-03-28T23:20:31.589Z,7.51
2023-03-28T23:22:59.504Z,7.53
2023-03-28T23:25:28.542Z,7.53
2023-03-28T23:27:56.465Z,7.62
2023-03-28T23:30:25.705Z,7.62
2023-03-28T23:32:53.477Z,7.57
2023-03-28T23:35:21.473Z,7.58
2023-03-28T23:37:52.962Z,7.61
2023-03-28T23:40:21.450Z,7.62
2023-03-28T23:42:49.668Z,7.56
2023-03-28T23:45:17.782Z,7.53
2023-03-28T23:47:46.991Z,7.54
2023-03-28T23:50:14.953Z,7.50
2023-03-28T23:52:42.901Z,7.49
2023-03-28T23:55:10.921Z,7.63
2023-03-28T23:57:38.729Z,7.48
